sensor_id;sensor_type;location;lat;lon;timestamp;P1;durP1;ratioP1;P2;durP2;ratioP2
61391;SDS011;47261;52.892;5.738;2023-04-24T00:02:04;12.13;;;6.13;;
61391;SDS011;47261;52.892;5.738;2023-04-24T00:04:32;12.00;;;6.25;;
61391;SDS011;47261;52.892;5.738;2023-04-24T00:06:58;11.77;;;6.33;;
61391;SDS011;47261;52.892;5.738;2023-04-24T00:09:25;13.07;;;5.90;;
61391;SDS011;47261;52.892;5.738;2023-04-24T00:11:51;11.10;;;5.90;;
61391;SDS011;47261;52.892;5.738;2023-04-24T00:14:17;15.13;;;6.15;;
61391;SDS011;47261;52.892;5.738;2023-04-24T00:16:43;12.80;;;6.30;;
61391;SDS011;47261;52.892;5.738;2023-04-24T00:19:08;10.02;;;5.22;;
61391;SDS011;47261;52.892;5.738;2023-04-24T00:21:34;11.73;;;5.77;;
61391;SDS011;47261;52.892;5.738;2023-04-24T00:24:00;10.18;;;5.32;;
61391;SDS011;47261;52.892;5.738;2023-04-24T00:26:25;12.57;;;5.63;;
61391;SDS011;47261;52.892;5.738;2023-04-24T00:28:51;10.98;;;5.05;;
61391;SDS011;47261;52.892;5.738;2023-04-24T00:31:16;8.70;;;4.30;;
61391;SDS011;47261;52.892;5.738;2023-04-24T00:33:42;10.38;;;4.55;;
61391;SDS011;47261;52.892;5.738;2023-04-24T00:36:08;8.03;;;3.80;;
61391;SDS011;47261;52.892;5.738;2023-04-24T00:38:34;5.97;;;2.65;;
61391;SDS011;47261;52.892;5.738;2023-04-24T00:41:00;5.80;;;2.50;;
61391;SDS011;47261;52.892;5.738;2023-04-24T00:43:26;8.07;;;3.43;;
61391;SDS011;47261;52.892;5.738;2023-04-24T00:45:51;6.65;;;3.40;;
61391;SDS011;47261;52.892;5.738;2023-04-24T00:48:17;7.00;;;3.13;;
61391;SDS011;47261;52.892;5.738;2023-04-24T00:50:43;7.82;;;3.47;;
61391;SDS011;47261;52.892;5.738;2023-04-24T00:53:10;6.13;;;2.80;;
61391;SDS011;47261;52.892;5.738;2023-04-24T00:55:35;8.30;;;3.23;;
61391;SDS011;47261;52.892;5.738;2023-04-24T00:58:02;6.03;;;2.90;;
61391;SDS011;47261;52.892;5.738;2023-04-24T01:00:28;5.80;;;2.70;;
61391;SDS011;47261;52.892;5.738;2023-04-24T01:02:54;6.07;;;2.78;;
61391;SDS011;47261;52.892;5.738;2023-04-24T01:05:20;4.70;;;2.25;;
61391;SDS011;47261;52.892;5.738;2023-04-24T01:07:46;6.97;;;2.23;;
61391;SDS011;47261;52.892;5.738;2023-04-24T01:10:14;5.75;;;2.78;;
61391;SDS011;47261;52.892;5.738;2023-04-24T01:12:40;6.68;;;2.92;;
61391;SDS011;47261;52.892;5.738;2023-04-24T01:15:06;6.75;;;3.30;;
61391;SDS011;47261;52.892;5.738;2023-04-24T01:17:33;6.80;;;3.05;;
61391;SDS011;47261;52.892;5.738;2023-04-24T01:19:59;7.60;;;3.47;;
61391;SDS011;47261;52.892;5.738;2023-04-24T01:22:26;5.90;;;2.53;;
61391;SDS011;47261;52.892;5.738;2023-04-24T01:24:52;7.07;;;3.50;;
61391;SDS011;47261;52.892;5.738;2023-04-24T01:27:18;8.63;;;3.60;;
61391;SDS011;47261;52.892;5.738;2023-04-24T01:29:44;7.75;;;4.03;;
61391;SDS011;47261;52.892;5.738;2023-04-24T01:32:12;9.23;;;3.17;;
61391;SDS011;47261;52.892;5.738;2023-04-24T01:34:38;7.75;;;4.22;;
61391;SDS011;47261;52.892;5.738;2023-04-24T01:37:04;7.45;;;3.50;;
61391;SDS011;47261;52.892;5.738;2023-04-24T01:39:30;7.73;;;3.63;;
61391;SDS011;47261;52.892;5.738;2023-04-24T01:41:56;11.65;;;4.35;;
61391;SDS011;47261;52.892;5.738;2023-04-24T01:44:22;10.25;;;4.45;;
61391;SDS011;47261;52.892;5.738;2023-04-24T01:46:48;10.70;;;4.70;;
61391;SDS011;47261;52.892;5.738;2023-04-24T01:49:13;8.98;;;4.57;;
61391;SDS011;47261;52.892;5.738;2023-04-24T01:51:40;8.65;;;4.65;;
61391;SDS011;47261;52.892;5.738;2023-04-24T01:54:06;11.23;;;5.00;;
61391;SDS011;47261;52.892;5.738;2023-04-24T01:56:33;9.70;;;4.70;;
61391;SDS011;47261;52.892;5.738;2023-04-24T01:59:00;10.40;;;4.90;;
61391;SDS011;47261;52.892;5.738;2023-04-24T02:01:33;12.23;;;5.65;;
61391;SDS011;47261;52.892;5.738;2023-04-24T02:04:00;11.15;;;4.80;;
61391;SDS011;47261;52.892;5.738;2023-04-24T02:06:26;8.63;;;4.30;;
61391;SDS011;47261;52.892;5.738;2023-04-24T02:08:52;8.40;;;4.00;;
61391;SDS011;47261;52.892;5.738;2023-04-24T02:11:18;12.55;;;5.00;;
61391;SDS011;47261;52.892;5.738;2023-04-24T02:13:44;11.57;;;4.40;;
61391;SDS011;47261;52.892;5.738;2023-04-24T02:16:09;10.73;;;5.07;;
61391;SDS011;47261;52.892;5.738;2023-04-24T02:18:35;8.90;;;4.37;;
61391;SDS011;47261;52.892;5.738;2023-04-24T02:21:01;10.63;;;5.00;;
61391;SDS011;47261;52.892;5.738;2023-04-24T02:23:26;10.17;;;4.60;;
61391;SDS011;47261;52.892;5.738;2023-04-24T02:25:52;9.83;;;4.80;;
61391;SDS011;47261;52.892;5.738;2023-04-24T02:28:18;11.57;;;5.70;;
61391;SDS011;47261;52.892;5.738;2023-04-24T02:30:44;12.73;;;5.20;;
61391;SDS011;47261;52.892;5.738;2023-04-24T02:33:10;14.10;;;7.00;;
61391;SDS011;47261;52.892;5.738;2023-04-24T02:35:36;16.13;;;7.80;;
61391;SDS011;47261;52.892;5.738;2023-04-24T02:38:02;15.55;;;7.10;;
61391;SDS011;47261;52.892;5.738;2023-04-24T02:40:28;11.23;;;4.88;;
61391;SDS011;47261;52.892;5.738;2023-04-24T02:42:54;8.93;;;4.30;;
61391;SDS011;47261;52.892;5.738;2023-04-24T02:45:20;6.95;;;3.20;;
61391;SDS011;47261;52.892;5.738;2023-04-24T02:47:45;6.20;;;1.77;;
61391;SDS011;47261;52.892;5.738;2023-04-24T02:50:11;4.05;;;1.60;;
61391;SDS011;47261;52.892;5.738;2023-04-24T02:52:37;4.03;;;1.20;;
61391;SDS011;47261;52.892;5.738;2023-04-24T02:55:02;7.50;;;1.30;;
61391;SDS011;47261;52.892;5.738;2023-04-24T02:57:28;3.65;;;1.00;;
61391;SDS011;47261;52.892;5.738;2023-04-24T02:59:54;5.40;;;1.00;;
61391;SDS011;47261;52.892;5.738;2023-04-24T03:02:19;2.37;;;0.80;;
61391;SDS011;47261;52.892;5.738;2023-04-24T03:04:45;4.28;;;1.00;;
61391;SDS011;47261;52.892;5.738;2023-04-24T03:07:13;5.27;;;1.27;;
61391;SDS011;47261;52.892;5.738;2023-04-24T03:09:39;4.53;;;1.20;;
61391;SDS011;47261;52.892;5.738;2023-04-24T03:12:05;5.15;;;1.70;;
61391;SDS011;47261;52.892;5.738;2023-04-24T03:14:31;5.00;;;1.60;;
61391;SDS011;47261;52.892;5.738;2023-04-24T03:16:57;4.85;;;1.75;;
61391;SDS011;47261;52.892;5.738;2023-04-24T03:19:23;7.82;;;2.55;;
61391;SDS011;47261;52.892;5.738;2023-04-24T03:21:49;8.87;;;3.40;;
61391;SDS011;47261;52.892;5.738;2023-04-24T03:24:15;14.73;;;3.83;;
61391;SDS011;47261;52.892;5.738;2023-04-24T03:26:41;9.40;;;3.83;;
61391;SDS011;47261;52.892;5.738;2023-04-24T03:29:07;13.13;;;5.20;;
61391;SDS011;47261;52.892;5.738;2023-04-24T03:31:32;12.15;;;4.50;;
61391;SDS011;47261;52.892;5.738;2023-04-24T03:33:58;12.07;;;4.47;;
61391;SDS011;47261;52.892;5.738;2023-04-24T03:36:24;14.57;;;5.27;;
61391;SDS011;47261;52.892;5.738;2023-04-24T03:38:51;13.13;;;5.30;;
61391;SDS011;47261;52.892;5.738;2023-04-24T03:41:16;13.90;;;5.77;;
61391;SDS011;47261;52.892;5.738;2023-04-24T03:43:42;13.13;;;5.03;;
61391;SDS011;47261;52.892;5.738;2023-04-24T03:46:07;13.43;;;5.53;;
61391;SDS011;47261;52.892;5.738;2023-04-24T03:48:34;14.07;;;6.38;;
61391;SDS011;47261;52.892;5.738;2023-04-24T03:51:00;16.42;;;6.78;;
61391;SDS011;47261;52.892;5.738;2023-04-24T03:53:26;14.60;;;6.90;;
61391;SDS011;47261;52.892;5.738;2023-04-24T03:55:52;14.65;;;7.05;;
61391;SDS011;47261;52.892;5.738;2023-04-24T03:58:18;19.70;;;7.57;;
61391;SDS011;47261;52.892;5.738;2023-04-24T04:00:44;15.97;;;6.43;;
61391;SDS011;47261;52.892;5.738;2023-04-24T04:03:11;18.70;;;7.40;;
61391;SDS011;47261;52.892;5.738;2023-04-24T04:05:38;18.00;;;8.07;;
61391;SDS011;47261;52.892;5.738;2023-04-24T04:08:03;17.43;;;7.60;;
61391;SDS011;47261;52.892;5.738;2023-04-24T04:10:29;16.10;;;7.60;;
61391;SDS011;47261;52.892;5.738;2023-04-24T04:12:54;13.77;;;6.97;;
61391;SDS011;47261;52.892;5.738;2023-04-24T04:15:20;20.47;;;7.90;;
61391;SDS011;47261;52.892;5.738;2023-04-24T04:17:46;13.40;;;6.45;;
61391;SDS011;47261;52.892;5.738;2023-04-24T04:20:12;18.50;;;6.03;;
61391;SDS011;47261;52.892;5.738;2023-04-24T04:22:38;13.03;;;6.27;;
61391;SDS011;47261;52.892;5.738;2023-04-24T04:25:04;12.15;;;5.10;;
61391;SDS011;47261;52.892;5.738;2023-04-24T04:27:30;15.18;;;5.28;;
61391;SDS011;47261;52.892;5.738;2023-04-24T04:30:00;13.10;;;5.55;;
61391;SDS011;47261;52.892;5.738;2023-04-24T04:32:33;11.18;;;4.95;;
61391;SDS011;47261;52.892;5.738;2023-04-24T04:34:59;12.73;;;4.63;;
61391;SDS011;47261;52.892;5.738;2023-04-24T04:37:32;11.68;;;4.63;;
61391;SDS011;47261;52.892;5.738;2023-04-24T04:39:58;12.43;;;5.60;;
61391;SDS011;47261;52.892;5.738;2023-04-24T04:42:28;11.65;;;5.18;;
61391;SDS011;47261;52.892;5.738;2023-04-24T04:44:54;12.07;;;4.95;;
61391;SDS011;47261;52.892;5.738;2023-04-24T04:47:21;10.63;;;4.23;;
61391;SDS011;47261;52.892;5.738;2023-04-24T04:49:50;8.30;;;3.65;;
61391;SDS011;47261;52.892;5.738;2023-04-24T04:52:17;9.07;;;3.50;;
61391;SDS011;47261;52.892;5.738;2023-04-24T04:54:43;12.65;;;3.63;;
61391;SDS011;47261;52.892;5.738;2023-04-24T04:57:08;7.13;;;2.90;;
61391;SDS011;47261;52.892;5.738;2023-04-24T04:59:35;8.15;;;3.28;;
61391;SDS011;47261;52.892;5.738;2023-04-24T05:02:00;11.47;;;4.00;;
61391;SDS011;47261;52.892;5.738;2023-04-24T05:04:26;10.07;;;3.67;;
61391;SDS011;47261;52.892;5.738;2023-04-24T05:06:52;12.83;;;3.83;;
61391;SDS011;47261;52.892;5.738;2023-04-24T05:09:18;13.10;;;4.00;;
61391;SDS011;47261;52.892;5.738;2023-04-24T05:11:43;12.77;;;3.80;;
61391;SDS011;47261;52.892;5.738;2023-04-24T05:14:09;11.70;;;4.63;;
61391;SDS011;47261;52.892;5.738;2023-04-24T05:16:35;11.80;;;5.13;;
61391;SDS011;47261;52.892;5.738;2023-04-24T05:19:02;10.70;;;4.22;;
61391;SDS011;47261;52.892;5.738;2023-04-24T05:21:28;11.52;;;3.92;;
61391;SDS011;47261;52.892;5.738;2023-04-24T05:23:54;12.80;;;4.22;;
61391;SDS011;47261;52.892;5.738;2023-04-24T05:26:20;13.83;;;4.97;;
61391;SDS011;47261;52.892;5.738;2023-04-24T05:28:45;14.10;;;5.40;;
61391;SDS011;47261;52.892;5.738;2023-04-24T05:31:11;17.03;;;6.40;;
61391;SDS011;47261;52.892;5.738;2023-04-24T05:33:37;11.15;;;4.43;;
61391;SDS011;47261;52.892;5.738;2023-04-24T05:36:03;15.85;;;5.13;;
61391;SDS011;47261;52.892;5.738;2023-04-24T05:38:30;10.93;;;4.90;;
61391;SDS011;47261;52.892;5.738;2023-04-24T05:40:56;12.70;;;4.33;;
61391;SDS011;47261;52.892;5.738;2023-04-24T05:43:21;12.97;;;5.20;;
61391;SDS011;47261;52.892;5.738;2023-04-24T05:45:47;14.50;;;4.97;;
61391;SDS011;47261;52.892;5.738;2023-04-24T05:48:12;12.77;;;4.87;;
61391;SDS011;47261;52.892;5.738;2023-04-24T05:50:38;11.25;;;4.30;;
61391;SDS011;47261;52.892;5.738;2023-04-24T05:53:04;7.90;;;3.55;;
61391;SDS011;47261;52.892;5.738;2023-04-24T05:55:32;10.03;;;3.97;;
61391;SDS011;47261;52.892;5.738;2023-04-24T05:57:57;8.98;;;3.28;;
61391;SDS011;47261;52.892;5.738;2023-04-24T06:00:23;8.25;;;3.60;;
61391;SDS011;47261;52.892;5.738;2023-04-24T06:02:49;8.63;;;3.50;;
61391;SDS011;47261;52.892;5.738;2023-04-24T06:05:16;9.25;;;3.50;;
61391;SDS011;47261;52.892;5.738;2023-04-24T06:07:42;10.48;;;4.45;;
61391;SDS011;47261;52.892;5.738;2023-04-24T06:10:08;8.57;;;4.20;;
61391;SDS011;47261;52.892;5.738;2023-04-24T06:12:34;11.70;;;4.70;;
61391;SDS011;47261;52.892;5.738;2023-04-24T06:15:00;11.52;;;5.10;;
61391;SDS011;47261;52.892;5.738;2023-04-24T06:17:26;11.90;;;4.37;;
61391;SDS011;47261;52.892;5.738;2023-04-24T06:19:51;6.47;;;2.90;;
61391;SDS011;47261;52.892;5.738;2023-04-24T06:22:17;6.03;;;1.97;;
61391;SDS011;47261;52.892;5.738;2023-04-24T06:24:42;5.93;;;2.03;;
61391;SDS011;47261;52.892;5.738;2023-04-24T06:27:08;3.03;;;1.03;;
61391;SDS011;47261;52.892;5.738;2023-04-24T06:29:35;5.75;;;1.63;;
61391;SDS011;47261;52.892;5.738;2023-04-24T06:32:01;7.55;;;2.22;;
61391;SDS011;47261;52.892;5.738;2023-04-24T06:34:26;3.30;;;1.13;;
61391;SDS011;47261;52.892;5.738;2023-04-24T06:36:52;6.57;;;1.97;;
61391;SDS011;47261;52.892;5.738;2023-04-24T06:39:19;7.47;;;2.87;;
61391;SDS011;47261;52.892;5.738;2023-04-24T06:41:44;12.23;;;4.85;;
61391;SDS011;47261;52.892;5.738;2023-04-24T06:44:10;11.43;;;4.00;;
61391;SDS011;47261;52.892;5.738;2023-04-24T06:46:35;10.98;;;4.10;;
61391;SDS011;47261;52.892;5.738;2023-04-24T06:49:01;12.93;;;5.37;;
61391;SDS011;47261;52.892;5.738;2023-04-24T06:51:27;15.47;;;6.20;;
61391;SDS011;47261;52.892;5.738;2023-04-24T06:53:53;20.20;;;7.38;;
61391;SDS011;47261;52.892;5.738;2023-04-24T06:56:19;17.20;;;6.30;;
61391;SDS011;47261;52.892;5.738;2023-04-24T06:58:45;14.38;;;6.43;;
61391;SDS011;47261;52.892;5.738;2023-04-24T07:01:11;20.83;;;7.20;;
61391;SDS011;47261;52.892;5.738;2023-04-24T07:03:37;13.32;;;6.03;;
61391;SDS011;47261;52.892;5.738;2023-04-24T07:06:03;21.15;;;8.55;;
61391;SDS011;47261;52.892;5.738;2023-04-24T07:08:29;16.83;;;7.63;;
61391;SDS011;47261;52.892;5.738;2023-04-24T07:10:58;21.70;;;8.90;;
61391;SDS011;47261;52.892;5.738;2023-04-24T07:13:24;17.92;;;8.32;;
61391;SDS011;47261;52.892;5.738;2023-04-24T07:15:50;26.10;;;10.05;;
61391;SDS011;47261;52.892;5.738;2023-04-24T07:18:17;26.47;;;11.27;;
61391;SDS011;47261;52.892;5.738;2023-04-24T07:20:43;22.02;;;10.20;;
61391;SDS011;47261;52.892;5.738;2023-04-24T07:23:09;25.40;;;9.85;;
61391;SDS011;47261;52.892;5.738;2023-04-24T07:25:35;21.93;;;8.87;;
61391;SDS011;47261;52.892;5.738;2023-04-24T07:28:01;24.52;;;10.27;;
61391;SDS011;47261;52.892;5.738;2023-04-24T07:30:26;20.93;;;8.97;;
61391;SDS011;47261;52.892;5.738;2023-04-24T07:32:54;17.13;;;7.57;;
61391;SDS011;47261;52.892;5.738;2023-04-24T07:35:20;15.73;;;6.38;;
61391;SDS011;47261;52.892;5.738;2023-04-24T07:37:46;14.70;;;6.53;;
61391;SDS011;47261;52.892;5.738;2023-04-24T07:40:12;16.88;;;6.07;;
61391;SDS011;47261;52.892;5.738;2023-04-24T07:42:38;15.07;;;7.68;;
61391;SDS011;47261;52.892;5.738;2023-04-24T07:45:04;19.90;;;7.63;;
61391;SDS011;47261;52.892;5.738;2023-04-24T07:47:31;20.95;;;6.80;;
61391;SDS011;47261;52.892;5.738;2023-04-24T07:49:57;15.77;;;6.03;;
61391;SDS011;47261;52.892;5.738;2023-04-24T07:52:23;18.70;;;7.28;;
61391;SDS011;47261;52.892;5.738;2023-04-24T07:54:49;16.80;;;6.65;;
61391;SDS011;47261;52.892;5.738;2023-04-24T07:57:15;22.33;;;7.27;;
61391;SDS011;47261;52.892;5.738;2023-04-24T07:59:41;22.30;;;8.88;;
61391;SDS011;47261;52.892;5.738;2023-04-24T08:02:07;16.00;;;6.60;;
61391;SDS011;47261;52.892;5.738;2023-04-24T08:04:33;19.00;;;7.23;;
61391;SDS011;47261;52.892;5.738;2023-04-24T08:06:58;16.63;;;6.55;;
61391;SDS011;47261;52.892;5.738;2023-04-24T08:09:24;19.43;;;5.33;;
61391;SDS011;47261;52.892;5.738;2023-04-24T08:11:50;19.17;;;4.03;;
61391;SDS011;47261;52.892;5.738;2023-04-24T08:14:15;11.57;;;5.37;;
61391;SDS011;47261;52.892;5.738;2023-04-24T08:16:41;14.05;;;4.72;;
61391;SDS011;47261;52.892;5.738;2023-04-24T08:19:07;12.53;;;4.07;;
61391;SDS011;47261;52.892;5.738;2023-04-24T08:21:33;13.80;;;4.22;;
61391;SDS011;47261;52.892;5.738;2023-04-24T08:23:59;21.93;;;5.57;;
61391;SDS011;47261;52.892;5.738;2023-04-24T08:26:24;14.30;;;5.20;;
61391;SDS011;47261;52.892;5.738;2023-04-24T08:28:50;15.27;;;5.23;;
61391;SDS011;47261;52.892;5.738;2023-04-24T08:31:15;16.45;;;4.88;;
61391;SDS011;47261;52.892;5.738;2023-04-24T08:33:41;12.23;;;4.60;;
61391;SDS011;47261;52.892;5.738;2023-04-24T08:36:09;12.65;;;4.50;;
61391;SDS011;47261;52.892;5.738;2023-04-24T08:38:35;9.23;;;3.07;;
61391;SDS011;47261;52.892;5.738;2023-04-24T08:41:01;13.77;;;3.88;;
61391;SDS011;47261;52.892;5.738;2023-04-24T08:43:27;8.57;;;3.35;;
61391;SDS011;47261;52.892;5.738;2023-04-24T08:45:55;14.60;;;3.30;;
61391;SDS011;47261;52.892;5.738;2023-04-24T08:48:21;11.90;;;3.85;;
61391;SDS011;47261;52.892;5.738;2023-04-24T08:50:48;14.57;;;3.55;;
61391;SDS011;47261;52.892;5.738;2023-04-24T08:53:15;12.75;;;2.92;;
61391;SDS011;47261;52.892;5.738;2023-04-24T08:55:41;14.17;;;3.43;;
61391;SDS011;47261;52.892;5.738;2023-04-24T08:58:11;13.82;;;3.45;;
61391;SDS011;47261;52.892;5.738;2023-04-24T09:00:38;10.30;;;2.92;;
61391;SDS011;47261;52.892;5.738;2023-04-24T09:03:04;18.35;;;3.55;;
61391;SDS011;47261;52.892;5.738;2023-04-24T09:05:31;13.68;;;2.90;;
61391;SDS011;47261;52.892;5.738;2023-04-24T09:07:58;11.63;;;2.50;;
61391;SDS011;47261;52.892;5.738;2023-04-24T09:10:26;10.55;;;1.85;;
61391;SDS011;47261;52.892;5.738;2023-04-24T09:12:55;6.13;;;1.92;;
61391;SDS011;47261;52.892;5.738;2023-04-24T09:15:24;7.07;;;1.60;;
61391;SDS011;47261;52.892;5.738;2023-04-24T09:17:50;4.55;;;1.42;;
61391;SDS011;47261;52.892;5.738;2023-04-24T09:20:16;9.87;;;1.73;;
61391;SDS011;47261;52.892;5.738;2023-04-24T09:22:42;10.95;;;1.83;;
61391;SDS011;47261;52.892;5.738;2023-04-24T09:25:08;9.68;;;1.65;;
61391;SDS011;47261;52.892;5.738;2023-04-24T09:27:37;10.25;;;1.73;;
61391;SDS011;47261;52.892;5.738;2023-04-24T09:30:08;12.10;;;1.90;;
61391;SDS011;47261;52.892;5.738;2023-04-24T09:32:34;11.05;;;2.00;;
61391;SDS011;47261;52.892;5.738;2023-04-24T09:35:12;7.85;;;1.67;;
61391;SDS011;47261;52.892;5.738;2023-04-24T09:37:43;15.83;;;2.30;;
61391;SDS011;47261;52.892;5.738;2023-04-24T09:40:17;17.02;;;2.00;;
61391;SDS011;47261;52.892;5.738;2023-04-24T09:45:17;7.25;;;1.20;;
61391;SDS011;47261;52.892;5.738;2023-04-24T09:47:43;8.90;;;1.27;;
61391;SDS011;47261;52.892;5.738;2023-04-24T09:50:12;9.18;;;2.00;;
61391;SDS011;47261;52.892;5.738;2023-04-24T09:52:56;14.57;;;1.20;;
61391;SDS011;47261;52.892;5.738;2023-04-24T09:55:23;5.63;;;0.82;;
61391;SDS011;47261;52.892;5.738;2023-04-24T09:57:49;6.67;;;0.90;;
61391;SDS011;47261;52.892;5.738;2023-04-24T10:00:23;12.77;;;1.35;;
61391;SDS011;47261;52.892;5.738;2023-04-24T10:02:50;18.70;;;1.10;;
61391;SDS011;47261;52.892;5.738;2023-04-24T10:05:21;5.53;;;0.90;;
61391;SDS011;47261;52.892;5.738;2023-04-24T10:07:48;6.85;;;0.70;;
61391;SDS011;47261;52.892;5.738;2023-04-24T10:10:14;12.10;;;1.03;;
61391;SDS011;47261;52.892;5.738;2023-04-24T10:12:40;8.82;;;1.35;;
61391;SDS011;47261;52.892;5.738;2023-04-24T10:15:07;6.47;;;0.80;;
61391;SDS011;47261;52.892;5.738;2023-04-24T10:17:35;6.23;;;0.90;;
61391;SDS011;47261;52.892;5.738;2023-04-24T10:20:01;6.13;;;0.90;;
61391;SDS011;47261;52.892;5.738;2023-04-24T10:22:27;7.47;;;0.98;;
61391;SDS011;47261;52.892;5.738;2023-04-24T10:24:55;9.82;;;1.15;;
61391;SDS011;47261;52.892;5.738;2023-04-24T10:27:21;5.43;;;0.70;;
61391;SDS011;47261;52.892;5.738;2023-04-24T10:29:49;7.27;;;0.93;;
61391;SDS011;47261;52.892;5.738;2023-04-24T10:32:18;6.15;;;1.00;;
61391;SDS011;47261;52.892;5.738;2023-04-24T10:34:43;5.43;;;0.70;;
61391;SDS011;47261;52.892;5.738;2023-04-24T10:37:10;5.40;;;0.50;;
61391;SDS011;47261;52.892;5.738;2023-04-24T10:39:35;6.43;;;1.00;;
61391;SDS011;47261;52.892;5.738;2023-04-24T10:42:12;6.82;;;1.00;;
61391;SDS011;47261;52.892;5.738;2023-04-24T10:44:40;6.75;;;0.52;;
61391;SDS011;47261;52.892;5.738;2023-04-24T10:47:07;8.93;;;1.07;;
61391;SDS011;47261;52.892;5.738;2023-04-24T10:49:38;10.23;;;1.13;;
61391;SDS011;47261;52.892;5.738;2023-04-24T10:52:04;6.20;;;0.70;;
61391;SDS011;47261;52.892;5.738;2023-04-24T10:54:45;6.07;;;0.97;;
61391;SDS011;47261;52.892;5.738;2023-04-24T11:00:13;7.68;;;0.80;;
61391;SDS011;47261;52.892;5.738;2023-04-24T11:02:46;7.70;;;0.93;;
61391;SDS011;47261;52.892;5.738;2023-04-24T11:05:15;3.33;;;0.50;;
61391;SDS011;47261;52.892;5.738;2023-04-24T11:10:43;4.50;;;0.65;;
61391;SDS011;47261;52.892;5.738;2023-04-24T11:13:09;4.57;;;0.73;;
61391;SDS011;47261;52.892;5.738;2023-04-24T11:15:35;4.57;;;0.77;;
61391;SDS011;47261;52.892;5.738;2023-04-24T11:18:01;3.03;;;0.50;;
61391;SDS011;47261;52.892;5.738;2023-04-24T11:20:26;10.87;;;0.70;;
61391;SDS011;47261;52.892;5.738;2023-04-24T11:22:53;4.47;;;0.70;;
61391;SDS011;47261;52.892;5.738;2023-04-24T11:25:20;9.38;;;0.50;;
61391;SDS011;47261;52.892;5.738;2023-04-24T11:27:47;5.70;;;0.50;;
61391;SDS011;47261;52.892;5.738;2023-04-24T11:30:18;5.13;;;0.50;;
61391;SDS011;47261;52.892;5.738;2023-04-24T11:32:50;3.78;;;0.32;;
61391;SDS011;47261;52.892;5.738;2023-04-24T11:35:20;3.70;;;0.50;;
61391;SDS011;47261;52.892;5.738;2023-04-24T11:37:50;5.22;;;0.50;;
61391;SDS011;47261;52.892;5.738;2023-04-24T11:40:20;4.47;;;0.35;;
61391;SDS011;47261;52.892;5.738;2023-04-24T11:42:48;3.27;;;0.40;;
61391;SDS011;47261;52.892;5.738;2023-04-24T11:45:16;2.92;;;0.60;;
61391;SDS011;47261;52.892;5.738;2023-04-24T11:47:44;4.90;;;0.50;;
61391;SDS011;47261;52.892;5.738;2023-04-24T11:50:11;4.75;;;0.40;;
61391;SDS011;47261;52.892;5.738;2023-04-24T11:52:42;3.22;;;0.40;;
61391;SDS011;47261;52.892;5.738;2023-04-24T11:57:45;4.75;;;0.55;;
61391;SDS011;47261;52.892;5.738;2023-04-24T12:00:16;2.75;;;0.40;;
61391;SDS011;47261;52.892;5.738;2023-04-24T12:02:44;5.07;;;0.55;;
61391;SDS011;47261;52.892;5.738;2023-04-24T12:05:18;6.40;;;0.60;;
61391;SDS011;47261;52.892;5.738;2023-04-24T12:07:48;5.17;;;0.60;;
61391;SDS011;47261;52.892;5.738;2023-04-24T12:10:14;2.25;;;0.30;;
61391;SDS011;47261;52.892;5.738;2023-04-24T12:12:44;7.03;;;0.50;;
61391;SDS011;47261;52.892;5.738;2023-04-24T12:15:11;1.13;;;0.22;;
61391;SDS011;47261;52.892;5.738;2023-04-24T12:17:40;7.17;;;0.57;;
61391;SDS011;47261;52.892;5.738;2023-04-24T12:20:07;3.90;;;0.40;;
61391;SDS011;47261;52.892;5.738;2023-04-24T12:25:24;1.83;;;0.45;;
61391;SDS011;47261;52.892;5.738;2023-04-24T12:27:55;2.00;;;0.40;;
61391;SDS011;47261;52.892;5.738;2023-04-24T12:30:41;3.90;;;0.47;;
61391;SDS011;47261;52.892;5.738;2023-04-24T12:33:20;3.55;;;0.40;;
61391;SDS011;47261;52.892;5.738;2023-04-24T12:35:48;6.30;;;0.60;;
61391;SDS011;47261;52.892;5.738;2023-04-24T12:38:21;7.72;;;0.63;;
61391;SDS011;47261;52.892;5.738;2023-04-24T12:41:00;6.38;;;0.90;;
61391;SDS011;47261;52.892;5.738;2023-04-24T12:43:30;10.50;;;0.60;;
61391;SDS011;47261;52.892;5.738;2023-04-24T12:45:56;8.15;;;0.60;;
61391;SDS011;47261;52.892;5.738;2023-04-24T12:48:22;3.35;;;0.40;;
61391;SDS011;47261;52.892;5.738;2023-04-24T12:50:47;4.00;;;0.70;;
61391;SDS011;47261;52.892;5.738;2023-04-24T12:53:14;5.50;;;1.20;;
61391;SDS011;47261;52.892;5.738;2023-04-24T12:55:40;5.93;;;0.50;;
61391;SDS011;47261;52.892;5.738;2023-04-24T12:58:06;7.23;;;0.70;;
61391;SDS011;47261;52.892;5.738;2023-04-24T13:00:32;4.13;;;0.50;;
61391;SDS011;47261;52.892;5.738;2023-04-24T13:02:58;5.22;;;0.60;;
61391;SDS011;47261;52.892;5.738;2023-04-24T13:05:24;4.90;;;0.50;;
61391;SDS011;47261;52.892;5.738;2023-04-24T13:07:50;16.05;;;1.83;;
61391;SDS011;47261;52.892;5.738;2023-04-24T13:10:15;5.07;;;0.90;;
61391;SDS011;47261;52.892;5.738;2023-04-24T13:12:41;4.50;;;0.90;;
61391;SDS011;47261;52.892;5.738;2023-04-24T13:15:10;5.45;;;1.02;;
61391;SDS011;47261;52.892;5.738;2023-04-24T13:17:36;9.53;;;0.90;;
61391;SDS011;47261;52.892;5.738;2023-04-24T13:20:01;5.80;;;0.50;;
61391;SDS011;47261;52.892;5.738;2023-04-24T13:22:27;5.87;;;0.93;;
61391;SDS011;47261;52.892;5.738;2023-04-24T13:24:53;5.78;;;1.02;;
61391;SDS011;47261;52.892;5.738;2023-04-24T13:27:19;7.05;;;1.17;;
61391;SDS011;47261;52.892;5.738;2023-04-24T13:29:45;5.17;;;1.00;;
61391;SDS011;47261;52.892;5.738;2023-04-24T13:32:11;11.35;;;1.40;;
61391;SDS011;47261;52.892;5.738;2023-04-24T13:34:36;5.33;;;0.80;;
61391;SDS011;47261;52.892;5.738;2023-04-24T13:37:02;11.90;;;1.03;;
61391;SDS011;47261;52.892;5.738;2023-04-24T13:39:29;7.45;;;0.80;;
61391;SDS011;47261;52.892;5.738;2023-04-24T13:41:55;10.40;;;1.35;;
61391;SDS011;47261;52.892;5.738;2023-04-24T13:44:21;8.77;;;1.30;;
61391;SDS011;47261;52.892;5.738;2023-04-24T13:46:48;13.55;;;1.23;;
61391;SDS011;47261;52.892;5.738;2023-04-24T13:49:17;6.93;;;1.03;;
61391;SDS011;47261;52.892;5.738;2023-04-24T13:51:43;20.63;;;1.60;;
61391;SDS011;47261;52.892;5.738;2023-04-24T13:54:08;7.65;;;1.20;;
61391;SDS011;47261;52.892;5.738;2023-04-24T13:56:34;6.47;;;1.03;;
61391;SDS011;47261;52.892;5.738;2023-04-24T13:59:00;6.30;;;0.82;;
61391;SDS011;47261;52.892;5.738;2023-04-24T14:01:26;6.97;;;1.10;;
61391;SDS011;47261;52.892;5.738;2023-04-24T14:03:52;8.52;;;1.35;;
61391;SDS011;47261;52.892;5.738;2023-04-24T14:06:18;10.23;;;1.77;;
61391;SDS011;47261;52.892;5.738;2023-04-24T14:08:45;6.22;;;1.10;;
61391;SDS011;47261;52.892;5.738;2023-04-24T14:11:11;6.83;;;1.27;;
61391;SDS011;47261;52.892;5.738;2023-04-24T14:13:37;4.65;;;1.15;;
61391;SDS011;47261;52.892;5.738;2023-04-24T14:16:03;8.45;;;1.30;;
61391;SDS011;47261;52.892;5.738;2023-04-24T14:18:29;10.07;;;1.48;;
61391;SDS011;47261;52.892;5.738;2023-04-24T14:20:55;13.07;;;1.50;;
61391;SDS011;47261;52.892;5.738;2023-04-24T14:23:21;8.60;;;0.80;;
61391;SDS011;47261;52.892;5.738;2023-04-24T14:25:46;7.43;;;1.07;;
61391;SDS011;47261;52.892;5.738;2023-04-24T14:28:15;11.60;;;1.35;;
61391;SDS011;47261;52.892;5.738;2023-04-24T14:30:42;10.82;;;1.73;;
61391;SDS011;47261;52.892;5.738;2023-04-24T14:33:07;9.37;;;1.40;;
61391;SDS011;47261;52.892;5.738;2023-04-24T14:35:33;6.97;;;1.77;;
61391;SDS011;47261;52.892;5.738;2023-04-24T14:38:00;12.43;;;2.33;;
61391;SDS011;47261;52.892;5.738;2023-04-24T14:40:25;10.23;;;1.50;;
61391;SDS011;47261;52.892;5.738;2023-04-24T14:42:51;8.67;;;1.50;;
61391;SDS011;47261;52.892;5.738;2023-04-24T14:45:17;10.02;;;1.88;;
61391;SDS011;47261;52.892;5.738;2023-04-24T14:47:43;9.02;;;1.73;;
61391;SDS011;47261;52.892;5.738;2023-04-24T14:50:10;9.10;;;1.70;;
61391;SDS011;47261;52.892;5.738;2023-04-24T14:52:37;8.40;;;1.50;;